sensor_id;sensor_type;location;lat;lon;timestamp;P1;durP1;ratioP1;P2;durP2;ratioP2
4650;SDS011;2338;49.602;8.722;2024-03-23T00:53:39;10.03;;;7.90;;
4650;SDS011;2338;49.602;8.722;2024-03-23T00:56:24;9.17;;;6.70;;
4650;SDS011;2338;49.602;8.722;2024-03-23T00:59:09;10.30;;;6.97;;
4650;SDS011;2338;49.602;8.722;2024-03-23T01:01:55;11.40;;;7.13;;
4650;SDS011;2338;49.602;8.722;2024-03-23T01:04:40;9.00;;;6.33;;
4650;SDS011;2338;49.602;8.722;2024-03-23T01:07:26;9.33;;;8.00;;
4650;SDS011;2338;49.602;8.722;2024-03-23T01:10:12;10.47;;;6.87;;
4650;SDS011;2338;49.602;8.722;2024-03-23T01:12:58;9.07;;;7.20;;
4650;SDS011;2338;49.602;8.722;2024-03-23T01:15:47;8.60;;;6.70;;
4650;SDS011;2338;49.602;8.722;2024-03-23T01:18:33;11.47;;;8.00;;
4650;SDS011;2338;49.602;8.722;2024-03-23T01:21:18;8.73;;;7.27;;
4650;SDS011;2338;49.602;8.722;2024-03-23T01:24:03;14.13;;;8.40;;
4650;SDS011;2338;49.602;8.722;2024-03-23T01:26:50;9.93;;;7.30;;
4650;SDS011;2338;49.602;8.722;2024-03-23T01:29:35;11.03;;;8.23;;
4650;SDS011;2338;49.602;8.722;2024-03-23T01:32:20;10.57;;;8.13;;
4650;SDS011;2338;49.602;8.722;2024-03-23T01:35:06;9.33;;;7.73;;
4650;SDS011;2338;49.602;8.722;2024-03-23T01:37:51;18.33;;;8.53;;
4650;SDS011;2338;49.602;8.722;2024-03-23T01:40:36;11.73;;;8.30;;
4650;SDS011;2338;49.602;8.722;2024-03-23T01:43:22;13.93;;;7.80;;
4650;SDS011;2338;49.602;8.722;2024-03-23T01:46:08;11.47;;;8.90;;
4650;SDS011;2338;49.602;8.722;2024-03-23T01:48:53;18.00;;;10.43;;
4650;SDS011;2338;49.602;8.722;2024-03-23T01:51:39;11.77;;;9.53;;
4650;SDS011;2338;49.602;8.722;2024-03-23T01:54:24;12.27;;;10.20;;
4650;SDS011;2338;49.602;8.722;2024-03-23T01:57:10;13.20;;;9.80;;
4650;SDS011;2338;49.602;8.722;2024-03-23T01:59:57;21.53;;;10.93;;
4650;SDS011;2338;49.602;8.722;2024-03-23T02:02:43;15.03;;;11.67;;
4650;SDS011;2338;49.602;8.722;2024-03-23T02:05:28;15.40;;;10.93;;
4650;SDS011;2338;49.602;8.722;2024-03-23T02:08:14;20.20;;;11.60;;
4650;SDS011;2338;49.602;8.722;2024-03-23T02:11:01;18.23;;;10.60;;
4650;SDS011;2338;49.602;8.722;2024-03-23T02:13:47;12.50;;;10.30;;
4650;SDS011;2338;49.602;8.722;2024-03-23T02:16:33;14.17;;;10.53;;
4650;SDS011;2338;49.602;8.722;2024-03-23T02:19:18;12.03;;;10.27;;
4650;SDS011;2338;49.602;8.722;2024-03-23T02:22:03;15.17;;;10.57;;
4650;SDS011;2338;49.602;8.722;2024-03-23T02:24:50;16.07;;;10.87;;
4650;SDS011;2338;49.602;8.722;2024-03-23T02:27:35;14.97;;;9.20;;
4650;SDS011;2338;49.602;8.722;2024-03-23T02:30:22;17.50;;;10.40;;
4650;SDS011;2338;49.602;8.722;2024-03-23T02:33:07;17.00;;;10.50;;
4650;SDS011;2338;49.602;8.722;2024-03-23T02:35:55;13.27;;;10.50;;
4650;SDS011;2338;49.602;8.722;2024-03-23T02:38:40;12.13;;;9.20;;
4650;SDS011;2338;49.602;8.722;2024-03-23T02:41:27;14.43;;;10.80;;
4650;SDS011;2338;49.602;8.722;2024-03-23T02:44:12;16.47;;;9.40;;
4650;SDS011;2338;49.602;8.722;2024-03-23T02:49:35;17.90;;;11.80;;
4650;SDS011;2338;49.602;8.722;2024-03-23T02:52:21;17.17;;;10.07;;
4650;SDS011;2338;49.602;8.722;2024-03-23T02:55:05;12.47;;;10.30;;
4650;SDS011;2338;49.602;8.722;2024-03-23T02:57:53;14.67;;;9.83;;
4650;SDS011;2338;49.602;8.722;2024-03-23T03:00:38;12.47;;;9.40;;
4650;SDS011;2338;49.602;8.722;2024-03-23T03:03:24;18.80;;;10.63;;
4650;SDS011;2338;49.602;8.722;2024-03-23T03:06:10;19.43;;;10.67;;
4650;SDS011;2338;49.602;8.722;2024-03-23T03:08:54;15.07;;;10.20;;
4650;SDS011;2338;49.602;8.722;2024-03-23T03:11:40;12.30;;;9.80;;
4650;SDS011;2338;49.602;8.722;2024-03-23T03:14:26;13.97;;;10.67;;
4650;SDS011;2338;49.602;8.722;2024-03-23T03:17:11;12.83;;;9.73;;
4650;SDS011;2338;49.602;8.722;2024-03-23T03:19:56;16.50;;;11.97;;
4650;SDS011;2338;49.602;8.722;2024-03-23T03:22:42;16.90;;;11.40;;
4650;SDS011;2338;49.602;8.722;2024-03-23T03:25:26;16.60;;;10.90;;
4650;SDS011;2338;49.602;8.722;2024-03-23T03:28:12;17.70;;;12.10;;
4650;SDS011;2338;49.602;8.722;2024-03-23T03:30:58;17.00;;;11.33;;
4650;SDS011;2338;49.602;8.722;2024-03-23T03:33:44;18.63;;;12.43;;
4650;SDS011;2338;49.602;8.722;2024-03-23T03:36:29;18.53;;;12.57;;
4650;SDS011;2338;49.602;8.722;2024-03-23T03:39:14;17.60;;;11.20;;
4650;SDS011;2338;49.602;8.722;2024-03-23T03:42:00;20.40;;;12.40;;
4650;SDS011;2338;49.602;8.722;2024-03-23T03:44:50;17.57;;;11.63;;
4650;SDS011;2338;49.602;8.722;2024-03-23T03:47:36;13.53;;;11.50;;
4650;SDS011;2338;49.602;8.722;2024-03-23T03:50:22;16.90;;;11.73;;
4650;SDS011;2338;49.602;8.722;2024-03-23T03:53:07;14.77;;;11.43;;
4650;SDS011;2338;49.602;8.722;2024-03-23T03:55:52;22.83;;;12.13;;
4650;SDS011;2338;49.602;8.722;2024-03-23T03:58:37;17.73;;;11.70;;
4650;SDS011;2338;49.602;8.722;2024-03-23T04:01:23;22.27;;;13.37;;
4650;SDS011;2338;49.602;8.722;2024-03-23T04:04:09;16.60;;;10.80;;
4650;SDS011;2338;49.602;8.722;2024-03-23T04:06:58;17.07;;;12.33;;
4650;SDS011;2338;49.602;8.722;2024-03-23T04:09:43;16.20;;;12.50;;
4650;SDS011;2338;49.602;8.722;2024-03-23T04:12:28;15.90;;;10.30;;
4650;SDS011;2338;49.602;8.722;2024-03-23T04:15:13;22.37;;;12.43;;
4650;SDS011;2338;49.602;8.722;2024-03-23T04:17:59;20.83;;;12.67;;
4650;SDS011;2338;49.602;8.722;2024-03-23T04:20:45;20.57;;;14.10;;
4650;SDS011;2338;49.602;8.722;2024-03-23T04:23:30;20.67;;;12.23;;
4650;SDS011;2338;49.602;8.722;2024-03-23T04:26:15;19.23;;;13.00;;
4650;SDS011;2338;49.602;8.722;2024-03-23T04:29:01;22.50;;;12.43;;
4650;SDS011;2338;49.602;8.722;2024-03-23T04:31:45;18.23;;;11.87;;
4650;SDS011;2338;49.602;8.722;2024-03-23T04:34:31;22.93;;;13.47;;
4650;SDS011;2338;49.602;8.722;2024-03-23T04:37:18;20.03;;;11.97;;
4650;SDS011;2338;49.602;8.722;2024-03-23T04:40:04;19.70;;;12.40;;
4650;SDS011;2338;49.602;8.722;2024-03-23T04:42:51;17.70;;;12.43;;
4650;SDS011;2338;49.602;8.722;2024-03-23T04:45:36;18.30;;;12.40;;
4650;SDS011;2338;49.602;8.722;2024-03-23T04:48:22;24.10;;;12.20;;
4650;SDS011;2338;49.602;8.722;2024-03-23T04:51:08;18.80;;;11.50;;
4650;SDS011;2338;49.602;8.722;2024-03-23T04:53:57;17.20;;;10.40;;
4650;SDS011;2338;49.602;8.722;2024-03-23T04:56:43;21.07;;;13.93;;
4650;SDS011;2338;49.602;8.722;2024-03-23T04:59:28;16.17;;;10.57;;
4650;SDS011;2338;49.602;8.722;2024-03-23T05:02:13;20.17;;;12.53;;
4650;SDS011;2338;49.602;8.722;2024-03-23T05:04:59;14.33;;;10.23;;
4650;SDS011;2338;49.602;8.722;2024-03-23T05:07:43;17.30;;;10.50;;
4650;SDS011;2338;49.602;8.722;2024-03-23T05:10:30;14.27;;;9.10;;
4650;SDS011;2338;49.602;8.722;2024-03-23T05:13:16;14.70;;;9.20;;
4650;SDS011;2338;49.602;8.722;2024-03-23T05:16:02;19.00;;;10.80;;
4650;SDS011;2338;49.602;8.722;2024-03-23T05:18:47;15.00;;;10.00;;
4650;SDS011;2338;49.602;8.722;2024-03-23T05:21:33;15.93;;;9.70;;
4650;SDS011;2338;49.602;8.722;2024-03-23T05:24:17;13.50;;;9.37;;
4650;SDS011;2338;49.602;8.722;2024-03-23T05:27:04;9.77;;;6.67;;
4650;SDS011;2338;49.602;8.722;2024-03-23T05:29:49;9.70;;;6.67;;
4650;SDS011;2338;49.602;8.722;2024-03-23T05:32:35;9.80;;;6.57;;
4650;SDS011;2338;49.602;8.722;2024-03-23T05:35:24;7.27;;;5.37;;
4650;SDS011;2338;49.602;8.722;2024-03-23T05:38:08;7.47;;;4.60;;
4650;SDS011;2338;49.602;8.722;2024-03-23T05:40:54;6.00;;;4.07;;
4650;SDS011;2338;49.602;8.722;2024-03-23T05:43:40;4.43;;;3.60;;
4650;SDS011;2338;49.602;8.722;2024-03-23T05:46:25;4.60;;;3.90;;
4650;SDS011;2338;49.602;8.722;2024-03-23T05:49:10;5.80;;;3.60;;
4650;SDS011;2338;49.602;8.722;2024-03-23T05:51:56;5.87;;;4.53;;
4650;SDS011;2338;49.602;8.722;2024-03-23T05:54:40;4.87;;;3.57;;
4650;SDS011;2338;49.602;8.722;2024-03-23T05:57:26;4.40;;;3.53;;
4650;SDS011;2338;49.602;8.722;2024-03-23T06:00:12;6.80;;;3.90;;
4650;SDS011;2338;49.602;8.722;2024-03-23T06:03:01;5.00;;;3.73;;
4650;SDS011;2338;49.602;8.722;2024-03-23T06:05:45;5.00;;;3.70;;
4650;SDS011;2338;49.602;8.722;2024-03-23T06:08:31;4.50;;;3.30;;
4650;SDS011;2338;49.602;8.722;2024-03-23T06:11:16;4.20;;;3.40;;
4650;SDS011;2338;49.602;8.722;2024-03-23T06:14:01;5.07;;;3.80;;
4650;SDS011;2338;49.602;8.722;2024-03-23T06:16:47;4.17;;;3.77;;
4650;SDS011;2338;49.602;8.722;2024-03-23T06:19:33;3.70;;;2.90;;
4650;SDS011;2338;49.602;8.722;2024-03-23T06:22:18;7.03;;;3.10;;
4650;SDS011;2338;49.602;8.722;2024-03-23T06:25:03;5.00;;;3.30;;
4650;SDS011;2338;49.602;8.722;2024-03-23T06:27:49;5.53;;;3.20;;
4650;SDS011;2338;49.602;8.722;2024-03-23T06:30:35;3.07;;;2.60;;
4650;SDS011;2338;49.602;8.722;2024-03-23T06:33:21;4.23;;;2.70;;
4650;SDS011;2338;49.602;8.722;2024-03-23T06:36:08;3.03;;;2.30;;
4650;SDS011;2338;49.602;8.722;2024-03-23T06:38:54;4.73;;;1.90;;
4650;SDS011;2338;49.602;8.722;2024-03-23T06:41:39;3.53;;;2.37;;
4650;SDS011;2338;49.602;8.722;2024-03-23T06:44:24;3.03;;;2.27;;
4650;SDS011;2338;49.602;8.722;2024-03-23T06:47:10;3.30;;;2.37;;
4650;SDS011;2338;49.602;8.722;2024-03-23T06:49:56;2.57;;;1.87;;
4650;SDS011;2338;49.602;8.722;2024-03-23T06:52:42;2.80;;;2.20;;
4650;SDS011;2338;49.602;8.722;2024-03-23T06:55:27;2.87;;;2.13;;
4650;SDS011;2338;49.602;8.722;2024-03-23T06:58:13;4.67;;;2.57;;
4650;SDS011;2338;49.602;8.722;2024-03-23T07:00:57;3.80;;;2.90;;
4650;SDS011;2338;49.602;8.722;2024-03-23T07:03:43;3.30;;;2.13;;
4650;SDS011;2338;49.602;8.722;2024-03-23T07:06:29;2.97;;;2.10;;
4650;SDS011;2338;49.602;8.722;2024-03-23T07:09:15;3.17;;;2.33;;
4650;SDS011;2338;49.602;8.722;2024-03-23T07:12:00;3.00;;;1.87;;
4650;SDS011;2338;49.602;8.722;2024-03-23T07:14:46;3.20;;;2.20;;
4650;SDS011;2338;49.602;8.722;2024-03-23T07:17:30;3.97;;;1.60;;
4650;SDS011;2338;49.602;8.722;2024-03-23T07:20:16;3.20;;;2.07;;
4650;SDS011;2338;49.602;8.722;2024-03-23T07:23:03;2.73;;;1.80;;
4650;SDS011;2338;49.602;8.722;2024-03-23T07:25:58;2.23;;;1.80;;
4650;SDS011;2338;49.602;8.722;2024-03-23T07:28:43;2.03;;;1.33;;
4650;SDS011;2338;49.602;8.722;2024-03-23T07:31:30;5.90;;;3.70;;
4650;SDS011;2338;49.602;8.722;2024-03-23T07:34:14;1.70;;;1.30;;
4650;SDS011;2338;49.602;8.722;2024-03-23T07:37:00;4.20;;;3.53;;
4650;SDS011;2338;49.602;8.722;2024-03-23T07:39:46;3.27;;;2.17;;
4650;SDS011;2338;49.602;8.722;2024-03-23T07:42:32;6.40;;;1.47;;
4650;SDS011;2338;49.602;8.722;2024-03-23T07:45:17;1.70;;;1.10;;
4650;SDS011;2338;49.602;8.722;2024-03-23T07:48:03;12.27;;;4.80;;
4650;SDS011;2338;49.602;8.722;2024-03-23T07:50:55;12.10;;;6.63;;
4650;SDS011;2338;49.602;8.722;2024-03-23T07:53:42;13.90;;;6.97;;
4650;SDS011;2338;49.602;8.722;2024-03-23T07:56:31;9.10;;;5.00;;
4650;SDS011;2338;49.602;8.722;2024-03-23T07:59:17;3.50;;;2.40;;
4650;SDS011;2338;49.602;8.722;2024-03-23T08:02:03;8.40;;;3.93;;
4650;SDS011;2338;49.602;8.722;2024-03-23T08:04:48;12.60;;;5.73;;
4650;SDS011;2338;49.602;8.722;2024-03-23T08:07:34;7.53;;;4.00;;
4650;SDS011;2338;49.602;8.722;2024-03-23T08:10:19;7.97;;;3.73;;
4650;SDS011;2338;49.602;8.722;2024-03-23T08:13:05;4.30;;;3.00;;
4650;SDS011;2338;49.602;8.722;2024-03-23T08:15:50;4.33;;;3.43;;
4650;SDS011;2338;49.602;8.722;2024-03-23T08:18:36;7.93;;;3.10;;
4650;SDS011;2338;49.602;8.722;2024-03-23T08:21:20;7.80;;;4.70;;
4650;SDS011;2338;49.602;8.722;2024-03-23T08:24:06;12.50;;;7.07;;
4650;SDS011;2338;49.602;8.722;2024-03-23T08:26:51;10.80;;;5.33;;
4650;SDS011;2338;49.602;8.722;2024-03-23T08:29:40;14.17;;;6.30;;
4650;SDS011;2338;49.602;8.722;2024-03-23T08:32:25;11.33;;;6.10;;
4650;SDS011;2338;49.602;8.722;2024-03-23T08:35:10;10.87;;;5.80;;
4650;SDS011;2338;49.602;8.722;2024-03-23T08:37:55;8.87;;;6.23;;
4650;SDS011;2338;49.602;8.722;2024-03-23T08:40:40;6.17;;;3.60;;
4650;SDS011;2338;49.602;8.722;2024-03-23T08:43:25;5.17;;;3.20;;
4650;SDS011;2338;49.602;8.722;2024-03-23T08:46:13;6.43;;;3.30;;
4650;SDS011;2338;49.602;8.722;2024-03-23T08:48:59;14.73;;;6.17;;
4650;SDS011;2338;49.602;8.722;2024-03-23T08:51:44;19.77;;;7.67;;
4650;SDS011;2338;49.602;8.722;2024-03-23T08:54:29;24.13;;;8.23;;
4650;SDS011;2338;49.602;8.722;2024-03-23T08:57:14;13.60;;;4.80;;
4650;SDS011;2338;49.602;8.722;2024-03-23T09:00:00;18.80;;;8.00;;
4650;SDS011;2338;49.602;8.722;2024-03-23T09:02:48;18.93;;;5.73;;
4650;SDS011;2338;49.602;8.722;2024-03-23T09:05:38;19.67;;;6.77;;
4650;SDS011;2338;49.602;8.722;2024-03-23T09:08:23;16.40;;;6.47;;
4650;SDS011;2338;49.602;8.722;2024-03-23T09:11:09;6.73;;;3.40;;
4650;SDS011;2338;49.602;8.722;2024-03-23T09:13:56;27.97;;;11.60;;
4650;SDS011;2338;49.602;8.722;2024-03-23T09:16:41;52.97;;;14.93;;
4650;SDS011;2338;49.602;8.722;2024-03-23T09:19:28;10.27;;;4.30;;
4650;SDS011;2338;49.602;8.722;2024-03-23T09:22:13;19.93;;;8.40;;
4650;SDS011;2338;49.602;8.722;2024-03-23T09:24:58;18.47;;;6.70;;
4650;SDS011;2338;49.602;8.722;2024-03-23T09:27:45;11.23;;;4.80;;
4650;SDS011;2338;49.602;8.722;2024-03-23T09:30:30;9.33;;;4.47;;
4650;SDS011;2338;49.602;8.722;2024-03-23T09:33:17;11.73;;;4.40;;
4650;SDS011;2338;49.602;8.722;2024-03-23T09:36:04;12.97;;;4.20;;
4650;SDS011;2338;49.602;8.722;2024-03-23T09:38:51;9.80;;;3.97;;
4650;SDS011;2338;49.602;8.722;2024-03-23T09:41:36;10.50;;;4.30;;
4650;SDS011;2338;49.602;8.722;2024-03-23T09:44:21;20.27;;;8.43;;
4650;SDS011;2338;49.602;8.722;2024-03-23T09:47:06;10.83;;;4.17;;
4650;SDS011;2338;49.602;8.722;2024-03-23T09:49:53;9.40;;;4.90;;
4650;SDS011;2338;49.602;8.722;2024-03-23T09:52:40;9.17;;;4.10;;
4650;SDS011;2338;49.602;8.722;2024-03-23T09:55:26;11.87;;;3.73;;
4650;SDS011;2338;49.602;8.722;2024-03-23T09:58:12;8.20;;;3.90;;
4650;SDS011;2338;49.602;8.722;2024-03-23T10:00:58;9.73;;;4.00;;
4650;SDS011;2338;49.602;8.722;2024-03-23T10:03:43;13.70;;;5.13;;
4650;SDS011;2338;49.602;8.722;2024-03-23T10:06:29;11.60;;;3.50;;
4650;SDS011;2338;49.602;8.722;2024-03-23T10:09:17;10.87;;;3.80;;
4650;SDS011;2338;49.602;8.722;2024-03-23T10:12:07;11.83;;;3.77;;
4650;SDS011;2338;49.602;8.722;2024-03-23T10:14:53;8.93;;;3.70;;
4650;SDS011;2338;49.602;8.722;2024-03-23T10:17:38;7.53;;;3.50;;
4650;SDS011;2338;49.602;8.722;2024-03-23T10:20:23;9.90;;;4.33;;
4650;SDS011;2338;49.602;8.722;2024-03-23T10:23:10;15.17;;;5.73;;
4650;SDS011;2338;49.602;8.722;2024-03-23T10:26:09;10.03;;;4.47;;
4650;SDS011;2338;49.602;8.722;2024-03-23T10:28:58;7.10;;;3.10;;
4650;SDS011;2338;49.602;8.722;2024-03-23T10:31:44;8.07;;;3.40;;
4650;SDS011;2338;49.602;8.722;2024-03-23T10:34:31;6.53;;;3.47;;
4650;SDS011;2338;49.602;8.722;2024-03-23T10:37:15;11.37;;;3.33;;
4650;SDS011;2338;49.602;8.722;2024-03-23T10:40:02;10.40;;;4.10;;
4650;SDS011;2338;49.602;8.722;2024-03-23T10:42:53;10.30;;;3.17;;
4650;SDS011;2338;49.602;8.722;2024-03-23T10:45:43;6.37;;;3.90;;
4650;SDS011;2338;49.602;8.722;2024-03-23T10:48:28;8.70;;;4.13;;
4650;SDS011;2338;49.602;8.722;2024-03-23T10:51:13;8.67;;;2.70;;
4650;SDS011;2338;49.602;8.722;2024-03-23T10:53:59;5.27;;;2.57;;
4650;SDS011;2338;49.602;8.722;2024-03-23T10:56:48;6.97;;;2.70;;
4650;SDS011;2338;49.602;8.722;2024-03-23T10:59:37;5.03;;;2.63;;
4650;SDS011;2338;49.602;8.722;2024-03-23T11:02:22;7.60;;;3.17;;
4650;SDS011;2338;49.602;8.722;2024-03-23T11:05:29;5.90;;;2.57;;
4650;SDS011;2338;49.602;8.722;2024-03-23T11:08:25;5.83;;;2.73;;
4650;SDS011;2338;49.602;8.722;2024-03-23T11:11:17;9.90;;;3.10;;
4650;SDS011;2338;49.602;8.722;2024-03-23T11:14:03;8.47;;;3.33;;
4650;SDS011;2338;49.602;8.722;2024-03-23T11:17:10;10.53;;;3.27;;
4650;SDS011;2338;49.602;8.722;2024-03-23T11:19:56;10.90;;;2.83;;
4650;SDS011;2338;49.602;8.722;2024-03-23T11:22:42;13.00;;;2.90;;
4650;SDS011;2338;49.602;8.722;2024-03-23T11:25:28;7.70;;;2.40;;
4650;SDS011;2338;49.602;8.722;2024-03-23T11:28:14;10.73;;;2.93;;
4650;SDS011;2338;49.602;8.722;2024-03-23T11:30:59;4.53;;;2.03;;
4650;SDS011;2338;49.602;8.722;2024-03-23T11:33:46;4.67;;;1.90;;
4650;SDS011;2338;49.602;8.722;2024-03-23T11:36:30;5.67;;;1.90;;
4650;SDS011;2338;49.602;8.722;2024-03-23T11:39:17;6.70;;;2.20;;
4650;SDS011;2338;49.602;8.722;2024-03-23T11:42:03;5.43;;;2.67;;
4650;SDS011;2338;49.602;8.722;2024-03-23T11:44:49;5.70;;;2.63;;
4650;SDS011;2338;49.602;8.722;2024-03-23T11:47:35;7.13;;;2.37;;
4650;SDS011;2338;49.602;8.722;2024-03-23T11:50:21;6.17;;;2.60;;
4650;SDS011;2338;49.602;8.722;2024-03-23T11:53:12;4.53;;;2.13;;
4650;SDS011;2338;49.602;8.722;2024-03-23T11:56:00;6.40;;;2.53;;
4650;SDS011;2338;49.602;8.722;2024-03-23T11:58:46;8.83;;;2.30;;
4650;SDS011;2338;49.602;8.722;2024-03-23T12:01:32;3.67;;;1.90;;
4650;SDS011;2338;49.602;8.722;2024-03-23T12:04:24;24.10;;;2.93;;
4650;SDS011;2338;49.602;8.722;2024-03-23T12:07:11;10.47;;;4.13;;
4650;SDS011;2338;49.602;8.722;2024-03-23T12:10:04;10.27;;;4.47;;
4650;SDS011;2338;49.602;8.722;2024-03-23T12:12:59;7.80;;;3.87;;
4650;SDS011;2338;49.602;8.722;2024-03-23T12:15:45;9.83;;;3.07;;
4650;SDS011;2338;49.602;8.722;2024-03-23T12:18:30;4.60;;;1.90;;
4650;SDS011;2338;49.602;8.722;2024-03-23T12:21:16;7.30;;;2.30;;
4650;SDS011;2338;49.602;8.722;2024-03-23T12:24:04;4.00;;;1.70;;
4650;SDS011;2338;49.602;8.722;2024-03-23T12:26:49;4.43;;;1.90;;
4650;SDS011;2338;49.602;8.722;2024-03-23T12:29:35;5.00;;;1.70;;
4650;SDS011;2338;49.602;8.722;2024-03-23T12:32:19;4.27;;;1.70;;
4650;SDS011;2338;49.602;8.722;2024-03-23T12:35:05;5.30;;;2.20;;
4650;SDS011;2338;49.602;8.722;2024-03-23T12:37:50;10.43;;;2.30;;
4650;SDS011;2338;49.602;8.722;2024-03-23T12:40:39;4.03;;;2.10;;
4650;SDS011;2338;49.602;8.722;2024-03-23T12:43:25;4.20;;;2.20;;
4650;SDS011;2338;49.602;8.722;2024-03-23T12:46:10;5.03;;;2.30;;
4650;SDS011;2338;49.602;8.722;2024-03-23T12:48:55;4.80;;;2.10;;
4650;SDS011;2338;49.602;8.722;2024-03-23T12:51:46;5.93;;;2.30;;
4650;SDS011;2338;49.602;8.722;2024-03-23T12:54:37;5.13;;;2.30;;
4650;SDS011;2338;49.602;8.722;2024-03-23T12:57:24;8.63;;;3.00;;
4650;SDS011;2338;49.602;8.722;2024-03-23T13:00:10;6.13;;;3.00;;
4650;SDS011;2338;49.602;8.722;2024-03-23T13:02:56;8.23;;;3.17;;
4650;SDS011;2338;49.602;8.722;2024-03-23T13:05:41;11.50;;;4.03;;
4650;SDS011;2338;49.602;8.722;2024-03-23T13:08:27;6.77;;;3.63;;
4650;SDS011;2338;49.602;8.722;2024-03-23T13:11:11;6.10;;;2.97;;
4650;SDS011;2338;49.602;8.722;2024-03-23T13:13:59;5.63;;;2.80;;
4650;SDS011;2338;49.602;8.722;2024-03-23T13:16:43;10.50;;;5.53;;
4650;SDS011;2338;49.602;8.722;2024-03-23T13:19:29;8.07;;;3.70;;
4650;SDS011;2338;49.602;8.722;2024-03-23T13:22:14;6.70;;;3.93;;
4650;SDS011;2338;49.602;8.722;2024-03-23T13:25:00;9.07;;;3.60;;
4650;SDS011;2338;49.602;8.722;2024-03-23T13:27:45;6.17;;;2.07;;
4650;SDS011;2338;49.602;8.722;2024-03-23T13:30:32;4.80;;;2.20;;
4650;SDS011;2338;49.602;8.722;2024-03-23T13:33:17;5.43;;;1.80;;
4650;SDS011;2338;49.602;8.722;2024-03-23T13:36:03;5.30;;;2.40;;
4650;SDS011;2338;49.602;8.722;2024-03-23T13:38:48;2.20;;;1.00;;
4650;SDS011;2338;49.602;8.722;2024-03-23T13:41:35;3.73;;;1.50;;
4650;SDS011;2338;49.602;8.722;2024-03-23T13:44:19;3.33;;;1.20;;
4650;SDS011;2338;49.602;8.722;2024-03-23T13:47:06;2.70;;;1.03;;
4650;SDS011;2338;49.602;8.722;2024-03-23T13:49:51;3.87;;;1.23;;
4650;SDS011;2338;49.602;8.722;2024-03-23T13:52:37;2.07;;;1.00;;
4650;SDS011;2338;49.602;8.722;2024-03-23T13:55:22;8.40;;;1.07;;
4650;SDS011;2338;49.602;8.722;2024-03-23T13:58:07;3.53;;;1.17;;
4650;SDS011;2338;49.602;8.722;2024-03-23T14:00:56;3.20;;;1.13;;
4650;SDS011;2338;49.602;8.722;2024-03-23T14:03:43;4.67;;;1.30;;
4650;SDS011;2338;49.602;8.722;2024-03-23T14:06:28;10.17;;;1.30;;
4650;SDS011;2338;49.602;8.722;2024-03-23T14:09:13;6.50;;;1.20;;
4650;SDS011;2338;49.602;8.722;2024-03-23T14:11:59;2.90;;;1.33;;
4650;SDS011;2338;49.602;8.722;2024-03-23T14:14:45;8.03;;;1.77;;
4650;SDS011;2338;49.602;8.722;2024-03-23T14:17:31;2.97;;;1.60;;
4650;SDS011;2338;49.602;8.722;2024-03-23T14:20:17;3.27;;;1.50;;
4650;SDS011;2338;49.602;8.722;2024-03-23T14:23:02;3.00;;;1.53;;
4650;SDS011;2338;49.602;8.722;2024-03-23T14:25:47;7.50;;;1.60;;
4650;SDS011;2338;49.602;8.722;2024-03-23T14:28:33;3.47;;;1.17;;
4650;SDS011;2338;49.602;8.722;2024-03-23T14:31:19;3.13;;;1.13;;
4650;SDS011;2338;49.602;8.722;2024-03-23T14:34:04;4.83;;;1.83;;
4650;SDS011;2338;49.602;8.722;2024-03-23T14:36:50;3.83;;;1.77;;
4650;SDS011;2338;49.602;8.722;2024-03-23T14:39:36;4.40;;;1.60;;
4650;SDS011;2338;49.602;8.722;2024-03-23T14:42:22;6.30;;;1.83;;
4650;SDS011;2338;49.602;8.722;2024-03-23T14:45:08;3.77;;;1.30;;
4650;SDS011;2338;49.602;8.722;2024-03-23T14:47:53;3.80;;;1.60;;
4650;SDS011;2338;49.602;8.722;2024-03-23T14:50:39;3.50;;;1.50;;
4650;SDS011;2338;49.602;8.722;2024-03-23T14:53:25;10.50;;;1.90;;
4650;SDS011;2338;49.602;8.722;2024-03-23T14:56:13;5.87;;;1.63;;
4650;SDS011;2338;49.602;8.722;2024-03-23T14:58:59;4.37;;;1.77;;
4650;SDS011;2338;49.602;8.722;2024-03-23T15:01:45;2.93;;;1.10;;
4650;SDS011;2338;49.602;8.722;2024-03-23T15:04:29;3.77;;;1.33;;
4650;SDS011;2338;49.602;8.722;2024-03-23T15:07:15;6.57;;;1.60;;
4650;SDS011;2338;49.602;8.722;2024-03-23T15:10:01;2.43;;;1.10;;
4650;SDS011;2338;49.602;8.722;2024-03-23T15:12:48;4.07;;;1.10;;
4650;SDS011;2338;49.602;8.722;2024-03-23T15:15:37;3.10;;;1.43;;
4650;SDS011;2338;49.602;8.722;2024-03-23T15:18:24;4.03;;;1.10;;
4650;SDS011;2338;49.602;8.722;2024-03-23T15:21:11;3.10;;;1.00;;
4650;SDS011;2338;49.602;8.722;2024-03-23T15:23:55;2.90;;;1.10;;
4650;SDS011;2338;49.602;8.722;2024-03-23T15:26:43;1.93;;;0.97;;
4650;SDS011;2338;49.602;8.722;2024-03-23T15:29:27;5.07;;;1.37;;
4650;SDS011;2338;49.602;8.722;2024-03-23T15:32:13;3.63;;;1.20;;
4650;SDS011;2338;49.602;8.722;2024-03-23T15:34:58;1.97;;;0.83;;
4650;SDS011;2338;49.602;8.722;2024-03-23T15:37:44;2.03;;;1.00;;
4650;SDS011;2338;49.602;8.722;2024-03-23T15:40:28;3.77;;;0.63;;
4650;SDS011;2338;49.602;8.722;2024-03-23T15:43:15;1.87;;;0.80;;
4650;SDS011;2338;49.602;8.722;2024-03-23T15:46:01;5.00;;;1.20;;
4650;SDS011;2338;49.602;8.722;2024-03-23T15:48:47;2.77;;;0.90;;
4650;SDS011;2338;49.602;8.722;2024-03-23T15:51:33;1.97;;;0.80;;
4650;SDS011;2338;49.602;8.722;2024-03-23T15:54:21;3.23;;;0.80;;
4650;SDS011;2338;49.602;8.722;2024-03-23T15:57:06;4.93;;;2.70;;
4650;SDS011;2338;49.602;8.722;2024-03-23T15:59:53;2.00;;;0.87;;
4650;SDS011;2338;49.602;8.722;2024-03-23T16:02:38;9.73;;;1.00;;
4650;SDS011;2338;49.602;8.722;2024-03-23T16:05:24;2.17;;;1.00;;
4650;SDS011;2338;49.602;8.722;2024-03-23T16:08:08;4.90;;;1.50;;
4650;SDS011;2338;49.602;8.722;2024-03-23T16:10:54;4.77;;;1.40;;
4650;SDS011;2338;49.602;8.722;2024-03-23T16:13:43;1.97;;;0.83;;
4650;SDS011;2338;49.602;8.722;2024-03-23T16:16:31;4.03;;;0.90;;
4650;SDS011;2338;49.602;8.722;2024-03-23T16:19:15;8.77;;;1.10;;
4650;SDS011;2338;49.602;8.722;2024-03-23T16:22:01;3.93;;;1.27;;
4650;SDS011;2338;49.602;8.722;2024-03-23T16:24:46;3.00;;;1.17;;
4650;SDS011;2338;49.602;8.722;2024-03-23T16:27:32;3.00;;;1.00;;
4650;SDS011;2338;49.602;8.722;2024-03-23T16:30:17;4.23;;;1.50;;
4650;SDS011;2338;49.602;8.722;2024-03-23T16:33:05;4.33;;;1.30;;
4650;SDS011;2338;49.602;8.722;2024-03-23T16:35:59;2.47;;;0.83;;
4650;SDS011;2338;49.602;8.722;2024-03-23T16:38:48;4.27;;;1.50;;
4650;SDS011;2338;49.602;8.722;2024-03-23T16:41:33;2.00;;;1.20;;
4650;SDS011;2338;49.602;8.722;2024-03-23T16:44:18;2.10;;;1.00;;
4650;SDS011;2338;49.602;8.722;2024-03-23T16:47:03;4.17;;;2.07;;
4650;SDS011;2338;49.602;8.722;2024-03-23T16:49:50;3.33;;;1.70;;
4650;SDS011;2338;49.602;8.722;2024-03-23T16:52:34;4.73;;;1.20;;
4650;SDS011;2338;49.602;8.722;2024-03-23T16:55:21;2.90;;;1.43;;
4650;SDS011;2338;49.602;8.722;2024-03-23T16:58:06;2.90;;;1.53;;
4650;SDS011;2338;49.602;8.722;2024-03-23T17:00:53;2.80;;;1.10;;
4650;SDS011;2338;49.602;8.722;2024-03-23T17:03:39;7.07;;;1.77;;
4650;SDS011;2338;49.602;8.722;2024-03-23T17:06:27;2.40;;;1.33;;
4650;SDS011;2338;49.602;8.722;2024-03-23T17:09:11;3.67;;;1.57;;
4650;SDS011;2338;49.602;8.722;2024-03-23T17:11:57;4.30;;;1.60;;
4650;SDS011;2338;49.602;8.722;2024-03-23T17:14:41;5.23;;;2.30;;
4650;SDS011;2338;49.602;8.722;2024-03-23T17:17:27;3.10;;;1.40;;
4650;SDS011;2338;49.602;8.722;2024-03-23T17:20:12;3.90;;;1.47;;
4650;SDS011;2338;49.602;8.722;2024-03-23T17:22:59;3.50;;;1.40;;
4650;SDS011;2338;49.602;8.722;2024-03-23T17:25:45;3.07;;;1.40;;
4650;SDS011;2338;49.602;8.722;2024-03-23T17:28:30;3.40;;;2.03;;
4650;SDS011;2338;49.602;8.722;2024-03-23T17:31:16;2.80;;;1.40;;
4650;SDS011;2338;49.602;8.722;2024-03-23T17:34:01;3.97;;;1.57;;
4650;SDS011;2338;49.602;8.722;2024-03-23T17:36:46;6.00;;;1.57;;
4650;SDS011;2338;49.602;8.722;2024-03-23T17:39:32;2.80;;;1.43;;
4650;SDS011;2338;49.602;8.722;2024-03-23T17:42:18;3.30;;;1.50;;
4650;SDS011;2338;49.602;8.722;2024-03-23T17:45:03;4.80;;;1.30;;
4650;SDS011;2338;49.602;8.722;2024-03-23T17:47:49;6.20;;;2.53;;
4650;SDS011;2338;49.602;8.722;2024-03-23T17:50:34;5.00;;;1.60;;
4650;SDS011;2338;49.602;8.722;2024-03-23T17:53:20;7.00;;;1.70;;
4650;SDS011;2338;49.602;8.722;2024-03-23T17:56:07;3.07;;;1.20;;
4650;SDS011;2338;49.602;8.722;2024-03-23T17:58:53;5.13;;;1.57;;